PS91 weather

Conemaugh Valley Memorial Hospital Heliport
Johnstown, Pennsylvania, United States

Public forecast

Using degrees Fahrenheit for public forecast. Weather courtesy of forecast.io.

METAR (pilot weather report)

Closest report is John Murtha Johnstown Cambria County Airport, 4.0 nm (7.5 km) E. Retrieved 2019/05/22 13:54 UTC (12 minutes ago):

KJST 221354Z AUTO 14011G18KT 10SM CLR 12/02 A3024 RMK AO2 SLP243 T01220017

TAF (pilot weather forecast)

Closest forecast is John Murtha Johnstown Cambria County Airport, 4.0 nm (7.5 km) E. Retrieved 2019/05/22 12:30 UTC (2 hours ago):

TAF KJST 221128Z 2212/2312 14006KT P6SM SCT250 FM221330 13009KT P6SM OVC250 FM221500 15011G17KT P6SM SCT060 OVC250 FM222200 16009KT P6SM BKN050 BKN150 FM230500 17005KT P6SM -SHRA OVC050